Observation data for Seagraves on 05/25/2020      Previous  Date       Current Mesonet Observations  Soil Data  Daily Summary Page  Observations in Plain Language
KSGV 250500Z 13008G13KT 19/10 A2979 RMK A01 T01860101  RH  060%=      5-min Rain = 0
KSGV 250505Z 12010G16KT 18/10 A2979 RMK A01 T01840102  RH  061%=      5-min Rain = 0
KSGV 250510Z 12009G16KT 18/10 A2979 RMK A01 T01840103  RH  061%=      5-min Rain = 0
KSGV 250515Z 12010G16KT 19/10 A2979 RMK A01 T01850103  RH  061%=      5-min Rain = 0
KSGV 250520Z 12011G16KT 19/10 A298 RMK A01 T01860104  RH  061%=      5-min Rain = 0
KSGV 250525Z 12009KT 19/11 A298 RMK A01 T01860105  RH  061%=      5-min Rain = 0
KSGV 250530Z 12009KT 19/10 A298 RMK A01 T01870104  RH  061%=      5-min Rain = 0
KSGV 250535Z 12010G18KT 19/10 A298 RMK A01 T01880103  RH  060%=      5-min Rain = 0
KSGV 250540Z 12010G18KT 19/10 A298 RMK A01 T01900101  RH  058%=      5-min Rain = 0
KSGV 250545Z 12011G18KT 19/10 A298 RMK A01 T01910099  RH  057%=      5-min Rain = 0
KSGV 250550Z 12009G15KT 19/10 A2981 RMK A01 T01930096  RH  055%=      5-min Rain = 0
KSGV 250555Z 12010G18KT 19/10 A2981 RMK A01 T01940095  RH  054%=      5-min Rain = 0
KSGV 250600Z 12012G22KT 20/09 A2981 RMK A01 T01960093  RH  053%=      5-min Rain = 0
KSGV 250605Z 12012G22KT 20/09 A2982 RMK A01 T01970092  RH  052%=      5-min Rain = 0
KSGV 250610Z 12012G19KT 20/09 A2982 RMK A01 T01970094  RH  053%=      5-min Rain = 0
KSGV 250615Z 12014G21KT 20/10 A2982 RMK A01 T01960098  RH  055%=      5-min Rain = 0
KSGV 250620Z 12012G20KT 19/10 A2982 RMK A01 T01930102  RH  058%=      5-min Rain = 0
KSGV 250625Z 12012G18KT 19/11 A2983 RMK A01 T01890106  RH  060%=      5-min Rain = 0
KSGV 250630Z 13014G22KT 19/11 A2983 RMK A01 T01870108  RH  062%=      5-min Rain = 0
KSGV 250635Z 13014G21KT 19/11 A2983 RMK A01 T01850111  RH  064%=      5-min Rain = 0
KSGV 250640Z 13014G22KT 18/11 A2983 RMK A01 T01820113  RH  066%=      5-min Rain = 0
KSGV 250645Z 13014G24KT 18/11 A2984 RMK A01 T01800114  RH  068%=      5-min Rain = 0
KSGV 250650Z 13013G21KT 18/11 A2984 RMK A01 T01780113  RH  068%=      5-min Rain = 0
KSGV 250655Z 13012G19KT 18/11 A2983 RMK A01 T01760112  RH  068%=      5-min Rain = 0
KSGV 250700Z 13010G16KT 18/11 A2984 RMK A01 T01750111  RH  069%=      5-min Rain = 0
KSGV 250705Z 13012G19KT 17/11 A2984 RMK A01 T01740111  RH  069%=      5-min Rain = 0
KSGV 250710Z 13010G17KT 17/11 A2984 RMK A01 T01740111  RH  069%=      5-min Rain = 0
KSGV 250715Z 13011G16KT 17/11 A2984 RMK A01 T01730112  RH  070%=      5-min Rain = 0
KSGV 250720Z 14010G17KT 17/11 A2984 RMK A01 T01730113  RH  070%=      5-min Rain = 0
KSGV 250725Z 13010KT 17/11 A2984 RMK A01 T01720113  RH  071%=      5-min Rain = 0
KSGV 250730Z 14011KT 17/11 A2984 RMK A01 T01710114  RH  072%=      5-min Rain = 0
KSGV 250735Z 14011KT 17/11 A2984 RMK A01 T01700114  RH  072%=      5-min Rain = 0
KSGV 250740Z 15010G15KT 17/11 A2984 RMK A01 T01700114  RH  072%=      5-min Rain = 0
KSGV 250745Z 15011G16KT 17/11 A2984 RMK A01 T01700113  RH  072%=      5-min Rain = 0
KSGV 250750Z 15010KT 17/11 A2983 RMK A01 T01700113  RH  072%=      5-min Rain = 0
KSGV 250755Z 14009G14KT 17/11 A2983 RMK A01 T01690112  RH  072%=      5-min Rain = 0
KSGV 250800Z 15009KT 17/11 A2983 RMK A01 T01680112  RH  072%=      5-min Rain = 0
KSGV 250805Z 14010KT 17/11 A2983 RMK A01 T01670111  RH  072%=      5-min Rain = 0
KSGV 250810Z 14008G13KT 17/11 A2984 RMK A01 T01670111  RH  072%=      5-min Rain = 0
KSGV 250815Z 12008G13KT 17/11 A2985 RMK A01 T01670112  RH  073%=      5-min Rain = 0
KSGV 250820Z 12007G12KT 17/11 A2985 RMK A01 T01660112  RH  073%=      5-min Rain = 0
KSGV 250825Z 10007KT 17/11 A2985 RMK A01 T01650112  RH  073%=      5-min Rain = 0
KSGV 250830Z 10006KT 16/11 A2985 RMK A01 T01640112  RH  074%=      5-min Rain = 0
KSGV 250835Z 10005KT 16/11 A2985 RMK A01 T01630112  RH  075%=      5-min Rain = 0
KSGV 250840Z 09005KT 16/11 A2985 RMK A01 T01610112  RH  075%=      5-min Rain = 0
KSGV 250845Z 08006KT 16/11 A2986 RMK A01 T01600113  RH  077%=      5-min Rain = 0
KSGV 250850Z 08007KT 16/12 A2986 RMK A01 T01590115  RH  078%=      5-min Rain = 0
KSGV 250855Z 08007G12KT 16/11 A2986 RMK A01 T01590114  RH  078%=      5-min Rain = 0
KSGV 250900Z 07006KT 16/11 A2986 RMK A01 T01570114  RH  078%=      5-min Rain = 0
KSGV 250905Z 08005KT 16/11 A2986 RMK A01 T01560113  RH  078%=      5-min Rain = 0
KSGV 250910Z 08008KT 15/11 A2986 RMK A01 T01530113  RH  080%=      5-min Rain = 0
KSGV 250915Z 09007G13KT 15/11 A2985 RMK A01 T01520113  RH  080%=      5-min Rain = 0
KSGV 250920Z 09007G12KT 15/12 A2985 RMK A01 T01520115  RH  082%=      5-min Rain = 0
KSGV 250925Z 09007G12KT 15/12 A2985 RMK A01 T01510116  RH  082%=      5-min Rain = 0
KSGV 250930Z 09008KT 15/12 A2985 RMK A01 T01510117  RH  083%=      5-min Rain = 0
KSGV 250935Z 09007G12KT 15/12 A2985 RMK A01 T01510117  RH  083%=      5-min Rain = 0
KSGV 250940Z 08007KT 15/12 A2985 RMK A01 T01500118  RH  084%=      5-min Rain = 0
KSGV 250945Z 09008G13KT 15/12 A2985 RMK A01 T01520119  RH  084%=      5-min Rain = 0
KSGV 250950Z 09009KT 15/12 A2985 RMK A01 T01520119  RH  083%=      5-min Rain = 0
KSGV 250955Z 08007KT 15/12 A2985 RMK A01 T01530119  RH  083%=      5-min Rain = 0
KSGV 251000Z 07008G13KT 15/12 A2985 RMK A01 T01520119  RH  083%=      5-min Rain = 0
KSGV 251005Z 07008G13KT 15/12 A2986 RMK A01 T01530119  RH  083%=      5-min Rain = 0
KSGV 251010Z 06008KT 15/12 A2986 RMK A01 T01530119  RH  083%=      5-min Rain = 0
KSGV 251015Z 05008KT 15/12 A2986 RMK A01 T01530119  RH  083%=      5-min Rain = 0
KSGV 251020Z 05006KT 15/12 A2986 RMK A01 T01540120  RH  083%=      5-min Rain = 0
KSGV 251025Z 06006G11KT 15/12 A2986 RMK A01 T01540120  RH  083%=      5-min Rain = 0
KSGV 251030Z 06008KT 15/12 A2987 RMK A01 T01540120  RH  083%=      5-min Rain = 0
KSGV 251035Z 06006G11KT 15/12 A2987 RMK A01 T01540121  RH  084%=      5-min Rain = 0
KSGV 251040Z 06007G12KT 15/12 A2987 RMK A01 T01540121  RH  084%=      5-min Rain = 0
KSGV 251045Z 06008KT 15/12 A2986 RMK A01 T01530120  RH  084%=      5-min Rain = 0
KSGV 251050Z 06007KT 15/12 A2986 RMK A01 T01520121  RH  084%=      5-min Rain = 0
KSGV 251055Z 05007KT 15/12 A2987 RMK A01 T01520121  RH  085%=      5-min Rain = 0
KSGV 251100Z 06006KT 15/12 A2986 RMK A01 T01530121  RH  084%=      5-min Rain = 0
KSGV 251105Z 06007G12KT 15/12 A2986 RMK A01 T01520121  RH  084%=      5-min Rain = 0
KSGV 251110Z 04007KT 15/12 A2986 RMK A01 T01510121  RH  085%=      5-min Rain = 0
KSGV 251115Z 05008G13KT 15/12 A2986 RMK A01 T01500121  RH  086%=      5-min Rain = 0
KSGV 251120Z 05008G13KT 15/12 A2987 RMK A01 T01480121  RH  087%=      5-min Rain = 0
KSGV 251125Z 06008KT 15/12 A2987 RMK A01 T01480122  RH  088%=      5-min Rain = 0
KSGV 251130Z 05007KT 15/12 A2987 RMK A01 T01470122  RH  088%=      5-min Rain = 0
KSGV 251135Z 05006KT 15/12 A2988 RMK A01 T01470122  RH  088%=      5-min Rain = 0
KSGV 251140Z 05007KT 15/12 A2988 RMK A01 T01470121  RH  088%=      5-min Rain = 0
KSGV 251145Z 05005KT 15/12 A2988 RMK A01 T01470122  RH  088%=      5-min Rain = 0
KSGV 251150Z 06006G11KT 15/12 A2988 RMK A01 T01470121  RH  088%=      5-min Rain = 0
KSGV 251155Z 06006KT 15/12 A2988 RMK A01 T01450121  RH  089%=      5-min Rain = 0
KSGV 251200Z 06006KT 15/12 A2989 RMK A01 T01460121  RH  089%=      5-min Rain = 0
KSGV 251205Z 05006KT 15/12 A2989 RMK A01 T01460121  RH  088%=      5-min Rain = 0
KSGV 251210Z 05006KT 15/12 A2989 RMK A01 T01450121  RH  088%=      5-min Rain = 0
KSGV 251215Z 04006KT 15/12 A2989 RMK A01 T01450121  RH  089%=      5-min Rain = 0
KSGV 251220Z 03007KT 15/12 A2989 RMK A01 T01450121  RH  089%=      5-min Rain = 0
KSGV 251225Z 03007KT 15/12 A2989 RMK A01 T01460121  RH  088%=      5-min Rain = 0
KSGV 251230Z 03007KT 15/12 A2989 RMK A01 T01450120  RH  088%=      5-min Rain = 0
KSGV 251235Z 02009G14KT 14/12 A2989 RMK A01 T01440119  RH  088%=      5-min Rain = 0
KSGV 251240Z 01012G17KT 15/12 A299 RMK A01 T01450120  RH  088%=      5-min Rain = 0
KSGV 251245Z 01010KT 15/12 A2989 RMK A01 T01470120  RH  087%=      5-min Rain = 0
KSGV 251250Z 01010KT 15/12 A2989 RMK A01 T01480121  RH  087%=      5-min Rain = 0
KSGV 251255Z 02012G17KT 15/12 A299 RMK A01 T01510121  RH  085%=      5-min Rain = 0
KSGV 251300Z 02012G17KT 15/12 A2989 RMK A01 T01510120  RH  085%=      5-min Rain = 0
KSGV 251305Z 01012KT 15/12 A2989 RMK A01 T01530121  RH  084%=      5-min Rain = 0
KSGV 251310Z 01012G17KT 16/12 A299 RMK A01 T01550120  RH  083%=      5-min Rain = 0
KSGV 251315Z 01012G17KT 16/12 A299 RMK A01 T01560120  RH  082%=      5-min Rain = 0
KSGV 251320Z 02012G17KT 16/12 A299 RMK A01 T01590120  RH  081%=      5-min Rain = 0
KSGV 251325Z 02012G17KT 16/12 A2991 RMK A01 T01620120  RH  079%=      5-min Rain = 0
KSGV 251330Z 01013G18KT 16/12 A2991 RMK A01 T01640120  RH  078%=      5-min Rain = 0
KSGV 251335Z 01012G18KT 17/12 A2991 RMK A01 T01660120  RH  077%=      5-min Rain = 0
KSGV 251340Z 01014G19KT 17/12 A2991 RMK A01 T01650119  RH  077%=      5-min Rain = 0
KSGV 251345Z 01015G21KT 16/12 A2991 RMK A01 T01640118  RH  077%=      5-min Rain = 0
KSGV 251350Z 01016G21KT 17/12 A2991 RMK A01 T01650118  RH  077%=      5-min Rain = 0
KSGV 251355Z 01013G19KT 17/12 A2992 RMK A01 T01690117  RH  074%=      5-min Rain = 0
KSGV 251400Z 01014G20KT 17/12 A2992 RMK A01 T01680116  RH  074%=      5-min Rain = 0
KSGV 251405Z 01013G20KT 17/12 A2992 RMK A01 T01680116  RH  074%=      5-min Rain = 0
KSGV 251410Z 01011G17KT 17/12 A2992 RMK A01 T01700116  RH  073%=      5-min Rain = 0
KSGV 251415Z 02013G20KT 17/12 A2992 RMK A01 T01710115  RH  072%=      5-min Rain = 0
KSGV 251420Z 02014G20KT 17/11 A2993 RMK A01 T01670112  RH  073%=      5-min Rain = 0
KSGV 251425Z 02013G19KT 17/11 A2993 RMK A01 T01670110  RH  072%=      5-min Rain = 0
KSGV 251430Z 02015G21KT 17/11 A2993 RMK A01 T01670107  RH  070%=      5-min Rain = 0
KSGV 251435Z 02015KT 17/10 A2993 RMK A01 T01650101  RH  068%=      5-min Rain = 0
KSGV 251440Z 02014G19KT 17/10 A2993 RMK A01 T01650097  RH  066%=      5-min Rain = 0
KSGV 251445Z 01013G19KT 17/10 A2993 RMK A01 T01680100  RH  066%=      5-min Rain = 0
KSGV 251450Z 02012G18KT 17/10 A2993 RMK A01 T01700099  RH  065%=      5-min Rain = 0
KSGV 251455Z 02015G22KT 17/10 A2993 RMK A01 T01690095  RH  064%=      5-min Rain = 0
KSGV 251500Z 03016G22KT 17/09 A2994 RMK A01 T01680088  RH  061%=      5-min Rain = 0
KSGV 251505Z 02016G21KT 17/09 A2994 RMK A01 T01670085  RH  060%=      5-min Rain = 0
KSGV 251510Z 02015G21KT 17/09 A2994 RMK A01 T01660085  RH  060%=      5-min Rain = 0
KSGV 251515Z 03015G22KT 17/09 A2994 RMK A01 T01660085  RH  061%=      5-min Rain = 0
KSGV 251520Z 03012G23KT 17/09 A2995 RMK A01 T01690086  RH  060%=      5-min Rain = 0
KSGV 251525Z 03014G19KT 17/09 A2995 RMK A01 T01690086  RH  060%=      5-min Rain = 0
KSGV 251530Z 02015G20KT 17/09 A2995 RMK A01 T01690085  RH  059%=      5-min Rain = 0
KSGV 251535Z 02013KT 17/09 A2995 RMK A01 T01680085  RH  060%=      5-min Rain = 0
KSGV 251540Z 03012G19KT 17/09 A2996 RMK A01 T01690085  RH  059%=      5-min Rain = 0
KSGV 251545Z 04012G19KT 17/09 A2996 RMK A01 T01670085  RH  060%=      5-min Rain = 0
KSGV 251550Z 03015G22KT 17/09 A2996 RMK A01 T01670085  RH  060%=      5-min Rain = 0
KSGV 251555Z 03012G20KT 17/09 A2995 RMK A01 T01690086  RH  060%=      5-min Rain = 0
KSGV 251600Z 03016G24KT 17/09 A2995 RMK A01 T01690085  RH  059%=      5-min Rain = 0
KSGV 251605Z 03014G20KT 17/09 A2995 RMK A01 T01700086  RH  059%=      5-min Rain = 0
KSGV 251610Z 02015G20KT 17/09 A2995 RMK A01 T01740087  RH  058%=      5-min Rain = 0
KSGV 251615Z 03014G19KT 18/09 A2995 RMK A01 T01760087  RH  058%=      5-min Rain = 0
KSGV 251620Z 03013G20KT 18/09 A2995 RMK A01 T01770088  RH  057%=      5-min Rain = 0
KSGV 251625Z 03014G20KT 18/09 A2995 RMK A01 T01780088  RH  057%=      5-min Rain = 0
KSGV 251630Z 04011G18KT 18/09 A2995 RMK A01 T01790089  RH  057%=      5-min Rain = 0
KSGV 251635Z 03014G22KT 18/09 A2995 RMK A01 T01800090  RH  057%=      5-min Rain = 0
KSGV 251640Z 04013G19KT 18/09 A2996 RMK A01 T01790089  RH  058%=      5-min Rain = 0
KSGV 251645Z 04011G16KT 18/09 A2996 RMK A01 T01770090  RH  058%=      5-min Rain = 0
KSGV 251650Z 04012G18KT 18/09 A2996 RMK A01 T01780090  RH  058%=      5-min Rain = 0
KSGV 251655Z 02013G19KT 18/09 A2996 RMK A01 T01770091  RH  059%=      5-min Rain = 0
KSGV 251700Z 03012G17KT 18/09 A2996 RMK A01 T01790092  RH  058%=      5-min Rain = 0
KSGV 251705Z 04011KT 18/09 A2996 RMK A01 T01800092  RH  058%=      5-min Rain = 0
KSGV 251710Z 04011KT 18/09 A2996 RMK A01 T01790093  RH  059%=      5-min Rain = 0
KSGV 251715Z 04013G19KT 18/09 A2996 RMK A01 T01800092  RH  058%=      5-min Rain = 0
KSGV 251720Z 05011G18KT 18/09 A2997 RMK A01 T01800093  RH  059%=      5-min Rain = 0
KSGV 251725Z 04012G19KT 18/09 A2997 RMK A01 T01800093  RH  059%=      5-min Rain = 0
KSGV 251730Z 05013G20KT 18/09 A2997 RMK A01 T01770094  RH  060%=      5-min Rain = 0
KSGV 251735Z 04013G19KT 18/09 A2997 RMK A01 T01770094  RH  060%=      5-min Rain = 0
KSGV 251740Z 04013G19KT 18/09 A2997 RMK A01 T01750094  RH  061%=      5-min Rain = 0
KSGV 251745Z 03013G19KT 18/10 A2997 RMK A01 T01760095  RH  061%=      5-min Rain = 0
KSGV 251750Z 04011G18KT 18/10 A2998 RMK A01 T01770096  RH  061%=      5-min Rain = 0
KSGV 251755Z 04011G17KT 18/10 A2998 RMK A01 T01770097  RH  061%=      5-min Rain = 0
KSGV 251800Z 03010G18KT 18/10 A2998 RMK A01 T01780098  RH  061%=      5-min Rain = 0
KSGV 251805Z 05012G19KT 18/10 A2998 RMK A01 T01780098  RH  061%=      5-min Rain = 0
KSGV 251810Z 04011G17KT 18/10 A2998 RMK A01 T01790098  RH  061%=      5-min Rain = 0
KSGV 251815Z 04012G20KT 18/10 A2998 RMK A01 T01770098  RH  061%=      5-min Rain = 0
KSGV 251820Z 03012G18KT 18/10 A2998 RMK A01 T01780098  RH  061%=      5-min Rain = 0
KSGV 251825Z 03011G16KT 18/10 A2998 RMK A01 T01790099  RH  061%=      5-min Rain = 0
KSGV 251830Z 03010G16KT 18/10 A2998 RMK A01 T01800099  RH  061%=      5-min Rain = 0
KSGV 251835Z 03011KT 18/10 A2998 RMK A01 T01790099  RH  061%=      5-min Rain = 0
KSGV 251840Z 04011G17KT 18/10 A2998 RMK A01 T01790099  RH  061%=      5-min Rain = 0
KSGV 251845Z 03011G16KT 18/10 A2998 RMK A01 T01790099  RH  062%=      5-min Rain = 0
KSGV 251850Z 03011G18KT 18/10 A2998 RMK A01 T01810100  RH  061%=      5-min Rain = 0
KSGV 251855Z 03012G18KT 18/10 A2998 RMK A01 T01830099  RH  060%=      5-min Rain = 0
KSGV 251900Z 03010KT 19/10 A2998 RMK A01 T01860100  RH  059%=      5-min Rain = 0
KSGV 251905Z 02009G16KT 19/10 A2998 RMK A01 T01870100  RH  059%=      5-min Rain = 0
KSGV 251910Z 02010G16KT 19/10 A2998 RMK A01 T01880100  RH  058%=      5-min Rain = 0
KSGV 251915Z 02011G17KT 19/10 A2998 RMK A01 T01890100  RH  058%=      5-min Rain = 0
KSGV 251920Z 02012G17KT 19/10 A2998 RMK A01 T01880098  RH  058%=      5-min Rain = 0
KSGV 251925Z 02012G18KT 19/10 A2998 RMK A01 T01880098  RH  057%=      5-min Rain = 0
KSGV 251930Z 01010G18KT 19/10 A2998 RMK A01 T01900099  RH  057%=      5-min Rain = 0
KSGV 251935Z 03012G18KT 19/10 A2998 RMK A01 T01910098  RH  057%=      5-min Rain = 0
KSGV 251940Z 03011G19KT 19/10 A2998 RMK A01 T01910098  RH  056%=      5-min Rain = 0
KSGV 251945Z 03011G16KT 19/10 A2998 RMK A01 T01920100  RH  057%=      5-min Rain = 0
KSGV 251950Z 02012G18KT 19/10 A2998 RMK A01 T01910099  RH  057%=      5-min Rain = 0
KSGV 251955Z 02012G18KT 19/10 A2998 RMK A01 T01920098  RH  056%=      5-min Rain = 0
KSGV 252000Z 02011G17KT 19/10 A2997 RMK A01 T01930099  RH  056%=      5-min Rain = 0
KSGV 252005Z 03009G14KT 20/10 A2997 RMK A01 T01960100  RH  055%=      5-min Rain = 0
KSGV 252010Z 05008G14KT 20/10 A2996 RMK A01 T02040101  RH  053%=      5-min Rain = 0
KSGV 252015Z 04012G18KT 21/10 A2995 RMK A01 T02070099  RH  052%=      5-min Rain = 0
KSGV 252020Z 04011G17KT 21/10 A2995 RMK A01 T02100099  RH  051%=      5-min Rain = 0
KSGV 252025Z 05011G16KT 21/10 A2995 RMK A01 T02120099  RH  050%=      5-min Rain = 0
KSGV 252030Z 06010G16KT 21/10 A2995 RMK A01 T02070097  RH  051%=      5-min Rain = 0
KSGV 252035Z 05008G14KT 21/10 A2995 RMK A01 T02060098  RH  051%=      5-min Rain = 0
KSGV 252040Z 04010G15KT 21/10 A2995 RMK A01 T02050095  RH  051%=      5-min Rain = 0
KSGV 252045Z 04010G18KT 20/10 A2995 RMK A01 T02040095  RH  051%=      5-min Rain = 0
KSGV 252050Z 04008G14KT 20/10 A2995 RMK A01 T02040095  RH  051%=      5-min Rain = 0
KSGV 252055Z 04009G15KT 21/10 A2995 RMK A01 T02060095  RH  050%=      5-min Rain = 0
KSGV 252100Z 05007G13KT 21/10 A2995 RMK A01 T02050095  RH  051%=      5-min Rain = 0
KSGV 252105Z 05009G14KT 21/09 A2995 RMK A01 T02090094  RH  049%=      5-min Rain = 0
KSGV 252110Z 04010G16KT 21/09 A2995 RMK A01 T02070093  RH  050%=      5-min Rain = 0
KSGV 252115Z 03008G13KT 21/09 A2995 RMK A01 T02090094  RH  049%=      5-min Rain = 0
KSGV 252120Z 04009KT 21/09 A2995 RMK A01 T02090093  RH  049%=      5-min Rain = 0
KSGV 252125Z 03009G14KT 21/09 A2995 RMK A01 T02090093  RH  049%=      5-min Rain = 0
KSGV 252130Z 02009KT 21/09 A2995 RMK A01 T02080092  RH  049%=      5-min Rain = 0
KSGV 252135Z 05008KT 21/09 A2995 RMK A01 T02080092  RH  049%=      5-min Rain = 0
KSGV 252140Z 02009KT 21/09 A2996 RMK A01 T02070092  RH  049%=      5-min Rain = 0
KSGV 252145Z 03010G15KT 21/09 A2996 RMK A01 T02060092  RH  049%=      5-min Rain = 0
KSGV 252150Z 01009G14KT 21/09 A2996 RMK A01 T02060091  RH  049%=      5-min Rain = 0
KSGV 252155Z 02010G16KT 21/09 A2996 RMK A01 T02050091  RH  049%=      5-min Rain = 0
KSGV 252200Z 01011G16KT 21/09 A2996 RMK A01 T02050090  RH  049%=      5-min Rain = 0
KSGV 252205Z 01011KT 21/09 A2996 RMK A01 T02050089  RH  049%=      5-min Rain = 0
KSGV 252210Z 02011G16KT 21/09 A2996 RMK A01 T02060089  RH  049%=      5-min Rain = 0
KSGV 252215Z 01012G18KT 21/09 A2996 RMK A01 T02060088  RH  048%=      5-min Rain = 0
KSGV 252220Z 03010G15KT 21/09 A2996 RMK A01 T02070087  RH  047%=      5-min Rain = 0
KSGV 252225Z 02012KT 21/09 A2996 RMK A01 T02090085  RH  046%=      5-min Rain = 0
KSGV 252230Z 03010KT 21/09 A2995 RMK A01 T02100085  RH  046%=      5-min Rain = 0
KSGV 252235Z 03011KT 21/09 A2995 RMK A01 T02110087  RH  046%=      5-min Rain = 0
KSGV 252240Z 04008G14KT 21/09 A2995 RMK A01 T02130088  RH  046%=      5-min Rain = 0
KSGV 252245Z 05009G15KT 21/09 A2995 RMK A01 T02130088  RH  046%=      5-min Rain = 0
KSGV 252250Z 05007G13KT 21/09 A2995 RMK A01 T02130088  RH  046%=      5-min Rain = 0
KSGV 252255Z 05009G14KT 22/09 A2995 RMK A01 T02150088  RH  046%=      5-min Rain = 0
KSGV 252300Z 04008G15KT 22/09 A2995 RMK A01 T02170089  RH  045%=      5-min Rain = 0
KSGV 252305Z 03009G14KT 22/09 A2995 RMK A01 T02190091  RH  045%=      5-min Rain = 0
KSGV 252310Z 05009KT 22/09 A2995 RMK A01 T02160093  RH  047%=      5-min Rain = 0
KSGV 252315Z 04009KT 22/09 A2995 RMK A01 T02150093  RH  047%=      5-min Rain = 0
KSGV 252320Z 04007KT 22/09 A2995 RMK A01 T02180094  RH  047%=      5-min Rain = 0
KSGV 252325Z 03009G15KT 22/09 A2995 RMK A01 T02180094  RH  046%=      5-min Rain = 0
KSGV 252330Z 03010KT 21/09 A2995 RMK A01 T02140093  RH  047%=      5-min Rain = 0
KSGV 252335Z 03011G16KT 21/09 A2995 RMK A01 T02120093  RH  048%=      5-min Rain = 0
KSGV 252340Z 03010G15KT 21/09 A2995 RMK A01 T02130093  RH  048%=      5-min Rain = 0
KSGV 252345Z 03010G15KT 21/09 A2995 RMK A01 T02130092  RH  048%=      5-min Rain = 0
KSGV 252350Z 03009G14KT 21/09 A2995 RMK A01 T02110093  RH  048%=      5-min Rain = 0
KSGV 252355Z 02012G17KT 21/09 A2995 RMK A01 T02130091  RH  047%=      5-min Rain = 0
KSGV 260000Z 02011G17KT 21/09 A2996 RMK A01 T02120091  RH  047%=      5-min Rain = 0
KSGV 260005Z 01015G21KT 21/09 A2996 RMK A01 T02080092  RH  049%=      5-min Rain = 0
KSGV 260010Z 00015KT 21/09 A2997 RMK A01 T02050092  RH  050%=      5-min Rain = 0
KSGV 260015Z 01014G21KT 20/09 A2997 RMK A01 T02040092  RH  050%=      5-min Rain = 0
KSGV 260020Z 02015G21KT 20/09 A2997 RMK A01 T02010091  RH  051%=      5-min Rain = 0
KSGV 260025Z 01011G16KT 20/09 A2997 RMK A01 T02010092  RH  051%=      5-min Rain = 0
KSGV 260030Z 01014KT 20/09 A2997 RMK A01 T02010092  RH  051%=      5-min Rain = 0
KSGV 260035Z 02015G20KT 20/09 A2998 RMK A01 T02000093  RH  052%=      5-min Rain = 0
KSGV 260040Z 02013KT 20/09 A2998 RMK A01 T02000093  RH  052%=      5-min Rain = 0
KSGV 260045Z 02013G18KT 20/09 A2998 RMK A01 T01990093  RH  052%=      5-min Rain = 0
KSGV 260050Z 02010G15KT 20/09 A2998 RMK A01 T01990093  RH  052%=      5-min Rain = 0
KSGV 260055Z 02012G18KT 20/09 A2999 RMK A01 T01960093  RH  053%=      5-min Rain = 0
KSGV 260100Z 02012G17KT 20/09 A2999 RMK A01 T01950092  RH  053%=      5-min Rain = 0
KSGV 260105Z 02013KT 19/09 A2999 RMK A01 T01940092  RH  053%=      5-min Rain = 0
KSGV 260110Z 02011G17KT 19/09 A2999 RMK A01 T01930092  RH  054%=      5-min Rain = 0
KSGV 260115Z 03009G14KT 19/09 A2999 RMK A01 T01920092  RH  054%=      5-min Rain = 0
KSGV 260120Z 03008G14KT 19/09 A30 RMK A01 T01910091  RH  054%=      5-min Rain = 0
KSGV 260125Z 02008G15KT 19/09 A30 RMK A01 T01900092  RH  054%=      5-min Rain = 0
KSGV 260130Z 02009G14KT 19/09 A30 RMK A01 T01880094  RH  056%=      5-min Rain = 0
KSGV 260135Z 02011KT 19/09 A3001 RMK A01 T01860094  RH  057%=      5-min Rain = 0
KSGV 260140Z 02010G15KT 19/09 A3001 RMK A01 T01850094  RH  057%=      5-min Rain = 0
KSGV 260145Z 02009KT 18/10 A3001 RMK A01 T01840095  RH  058%=      5-min Rain = 0
KSGV 260150Z 03009KT 18/10 A3001 RMK A01 T01830095  RH  058%=      5-min Rain = 0
KSGV 260155Z 02009KT 18/10 A3001 RMK A01 T01820095  RH  058%=      5-min Rain = 0
KSGV 260200Z 03008KT 18/10 A3001 RMK A01 T01810095  RH  059%=      5-min Rain = 0
KSGV 260205Z 03010KT 18/10 A3002 RMK A01 T01800095  RH  060%=      5-min Rain = 0
KSGV 260210Z 02010KT 18/10 A3002 RMK A01 T01780096  RH  060%=      5-min Rain = 0
KSGV 260215Z 02009KT 18/10 A3002 RMK A01 T01770096  RH  061%=      5-min Rain = 0
KSGV 260220Z 02009KT 18/10 A3002 RMK A01 T01750096  RH  062%=      5-min Rain = 0
KSGV 260225Z 02009KT 17/10 A3002 RMK A01 T01730096  RH  062%=      5-min Rain = 0
KSGV 260230Z 03009KT 17/10 A3002 RMK A01 T01720097  RH  063%=      5-min Rain = 0
KSGV 260235Z 03007KT 17/10 A3003 RMK A01 T01710097  RH  064%=      5-min Rain = 0
KSGV 260240Z 03007KT 17/10 A3003 RMK A01 T01700097  RH  064%=      5-min Rain = 0
KSGV 260245Z 03006KT 17/10 A3003 RMK A01 T01690097  RH  064%=      5-min Rain = 0
KSGV 260250Z 04006KT 17/10 A3003 RMK A01 T01680097  RH  065%=      5-min Rain = 0
KSGV 260255Z 03006KT 17/10 A3003 RMK A01 T01670097  RH  065%=      5-min Rain = 0
KSGV 260300Z 03006KT 17/10 A3004 RMK A01 T01670098  RH  065%=      5-min Rain = 0
KSGV 260305Z 02007KT 17/10 A3004 RMK A01 T01660097  RH  066%=      5-min Rain = 0
KSGV 260310Z 02008KT 17/10 A3004 RMK A01 T01650098  RH  067%=      5-min Rain = 0
KSGV 260315Z 03007KT 16/10 A3005 RMK A01 T01640098  RH  067%=      5-min Rain = 0
KSGV 260320Z 03007KT 16/10 A3005 RMK A01 T01630099  RH  068%=      5-min Rain = 0
KSGV 260325Z 03006KT 16/10 A3005 RMK A01 T01620099  RH  068%=      5-min Rain = 0
KSGV 260330Z 03006KT 16/10 A3005 RMK A01 T01610098  RH  068%=      5-min Rain = 0
KSGV 260335Z 02005KT 16/10 A3006 RMK A01 T01590098  RH  069%=      5-min Rain = 0
KSGV 260340Z 00006KT 16/10 A3006 RMK A01 T01570096  RH  069%=      5-min Rain = 0
KSGV 260345Z 00007KT 15/10 A3006 RMK A01 T01540096  RH  071%=      5-min Rain = 0
KSGV 260350Z 36008KT 15/10 A3007 RMK A01 T01540097  RH  071%=      5-min Rain = 0
KSGV 260355Z 36008KT 15/10 A3007 RMK A01 T01530097  RH  071%=      5-min Rain = 0
KSGV 260400Z 36007KT 15/10 A3006 RMK A01 T01510097  RH  072%=      5-min Rain = 0
KSGV 260405Z 36007KT 15/10 A3006 RMK A01 T01500096  RH  073%=      5-min Rain = 0
KSGV 260410Z 36007KT 15/10 A3006 RMK A01 T01470096  RH  074%=      5-min Rain = 0
KSGV 260415Z 00006KT 15/10 A3007 RMK A01 T01450096  RH  075%=      5-min Rain = 0
KSGV 260420Z 01007KT 15/10 A3007 RMK A01 T01450096  RH  074%=      5-min Rain = 0
KSGV 260425Z 00007KT 15/10 A3007 RMK A01 T01460096  RH  074%=      5-min Rain = 0
KSGV 260430Z 36007KT 14/10 A3007 RMK A01 T01430095  RH  075%=      5-min Rain = 0
KSGV 260435Z 36007KT 14/10 A3007 RMK A01 T01420095  RH  076%=      5-min Rain = 0
KSGV 260440Z 00006KT 14/10 A3007 RMK A01 T01410095  RH  076%=      5-min Rain = 0
KSGV 260445Z 00006KT 14/10 A3007 RMK A01 T01400095  RH  077%=      5-min Rain = 0
KSGV 260450Z 01006KT 14/10 A3007 RMK A01 T01390095  RH  077%=      5-min Rain = 0
KSGV 260455Z 01005KT 14/10 A3007 RMK A01 T01390095  RH  077%=      5-min Rain = 0

Page generated in 0.0517 seconds.